| time (UTC) | temp C | wind direction | speed KPH | gust KPH | rain 1hr cm | rain 24hr cm | rain mn cm | humidity % | barometer mb |
| 20260508220223 | 13 | 310 | 12.9 | 16.1 | 0.00 | 0.13 | 0.13 | 85 | 1008.4 |
| 20260508215719 | 13 | 339 | 9.7 | 12.9 | 0.00 | 0.13 | 0.13 | 85 | 1008.2 |
| 20260508215216 | 13 | 307 | 6.4 | 9.7 | 0.00 | 0.13 | 0.13 | 84 | 1008.3 |
| 20260508214713 | 13 | 296 | 9.7 | 11.3 | 0.00 | 0.13 | 0.13 | 84 | 1008.3 |
| 20260508214211 | 13 | 309 | 4.8 | 9.7 | 0.00 | 0.13 | 0.13 | 84 | 1008.4 |
| 20260508213707 | 13 | 301 | 11.3 | 16.1 | 0.18 | 0.13 | 0.13 | 84 | 1008.6 |
| 20260508213203 | 13 | 306 | 8.0 | 14.5 | 0.18 | 0.13 | 0.13 | 83 | 1008.6 |
| 20260508212700 | 13 | 314 | 6.4 | 9.7 | 0.00 | 0.10 | 0.10 | 83 | 1008.4 |
| 20260508212156 | 13 | 309 | 9.7 | 12.9 | 0.00 | 0.10 | 0.10 | 83 | 1008.4 |
| 20260508211652 | 13 | 319 | 12.9 | 14.5 | 0.00 | 0.10 | 0.10 | 83 | 1008.2 |
| 20260508211148 | 13 | 303 | 11.3 | 16.1 | 0.13 | 0.10 | 0.10 | 82 | 1008.4 |
| 20260508210645 | 13 | 306 | 16.1 | 17.7 | 0.13 | 0.10 | 0.10 | 81 | 1008.3 |
| 20260508210143 | 13 | 313 | 12.9 | 14.5 | 0.00 | 0.08 | 0.08 | 82 | 1008.3 |
| 20260508205639 | 13 | 308 | 16.1 | 20.9 | 0.00 | 0.08 | 0.08 | 82 | 1008.5 |
| 20260508205136 | 13 | 315 | 14.5 | 22.5 | 0.00 | 0.08 | 0.08 | 82 | 1008.4 |
| 20260508204632 | 13 | 312 | 16.1 | 17.7 | 0.18 | 0.08 | 0.08 | 82 | 1008.3 |
| 20260508204128 | 13 | 333 | 14.5 | 17.7 | 0.18 | 0.08 | 0.08 | 82 | 1008.6 |
| 20260508203624 | 13 | 330 | 16.1 | 22.5 | 0.00 | 0.05 | 0.05 | 82 | 1008.4 |
| 20260508203121 | 14 | 331 | 19.3 | 22.5 | 0.00 | 0.05 | 0.05 | 77 | 1008.8 |
| 20260508202617 | 14 | 307 | 22.5 | 30.6 | 0.00 | 0.05 | 0.05 | 72 | 1008.7 |
| 20260508202114 | 14 | 297 | 17.7 | 30.6 | 0.00 | 0.05 | 0.05 | 72 | 1008.6 |
| 20260508201611 | 14 | 312 | 22.5 | 33.8 | 0.00 | 0.05 | 0.05 | 70 | 1008.4 |
| 20260508201108 | 15 | 314 | 30.6 | 35.4 | 0.13 | 0.05 | 0.05 | 71 | 1008.7 |
| 20260508200605 | 16 | 273 | 27.4 | 35.4 | 0.00 | 0.03 | 0.03 | 64 | 1008.8 |
| 20260508200101 | 17 | 261 | 19.3 | 30.6 | 0.00 | 0.03 | 0.03 | 55 | 1008.3 |
| 20260508195557 | 17 | 256 | 24.1 | 27.4 | 0.00 | 0.03 | 0.03 | 53 | 1008.0 |
| 20260508195053 | 18 | 256 | 20.9 | 30.6 | 0.00 | 0.03 | 0.03 | 52 | 1007.8 |
| 20260508194550 | 18 | 247 | 24.1 | 33.8 | 0.00 | 0.03 | 0.03 | 51 | 1007.9 |
| 20260508194048 | 17 | 249 | 14.5 | 22.5 | 0.00 | 0.03 | 0.03 | 52 | 1007.8 |
| 20260508193544 | 17 | 241 | 24.1 | 38.6 | 0.00 | 0.03 | 0.03 | 50 | 1008.1 |
| 20260508193041 | 18 | 220 | 24.1 | 38.6 | 0.00 | 0.03 | 0.03 | 52 | 1008.1 |
| 20260508192538 | 18 | 255 | 22.5 | 25.7 | 0.00 | 0.03 | 0.03 | 53 | 1008.1 |
| 20260508192035 | 18 | 208 | 22.5 | 24.1 | 0.00 | 0.03 | 0.03 | 53 | 1008.2 |
| 20260508191531 | 18 | 210 | 20.9 | 25.7 | 0.00 | 0.03 | 0.03 | 52 | 1008.3 |
| 20260508191028 | 18 | 249 | 17.7 | 22.5 | 0.00 | 0.03 | 0.03 | 53 | 1008.5 |
| 20260508190525 | 18 | 246 | 20.9 | 35.4 | 0.00 | 0.03 | 0.03 | 52 | 1008.4 |
| 20260508190021 | 18 | 240 | 14.5 | 30.6 | 0.00 | 0.03 | 0.03 | 52 | 1008.7 |
| 20260508185519 | 18 | 233 | 14.5 | 17.7 | 0.00 | 0.03 | 0.03 | 52 | 1008.8 |
| 20260508185017 | 17 | 251 | 22.5 | 27.4 | 0.00 | 0.03 | 0.03 | 52 | 1008.7 |
| 20260508184514 | 17 | 235 | 19.3 | 24.1 | 0.00 | 0.03 | 0.03 | 53 | 1008.8 |
| 20260508184011 | 17 | 263 | 22.5 | 25.7 | 0.00 | 0.03 | 0.03 | 53 | 1009.0 |
| 20260508183507 | 17 | 265 | 14.5 | 22.5 | 0.00 | 0.03 | 0.03 | 54 | 1009.0 |
| 20260508183003 | 17 | 261 | 19.3 | 27.4 | 0.00 | 0.03 | 0.03 | 54 | 1008.9 |
| 20260508182500 | 17 | 274 | 16.1 | 22.5 | 0.00 | 0.03 | 0.03 | 53 | 1009.1 |
| 20260508181955 | 17 | 252 | 16.1 | 30.6 | 0.00 | 0.03 | 0.03 | 52 | 1009.1 |
| 20260508181451 | 18 | 267 | 22.5 | 27.4 | 0.00 | 0.03 | 0.03 | 52 | 1008.8 |
| 20260508180949 | 18 | 238 | 19.3 | 27.4 | 0.00 | 0.03 | 0.03 | 51 | 1009.0 |
| 20260508180446 | 18 | 242 | 14.5 | 24.1 | 0.00 | 0.03 | 0.03 | 52 | 1009.0 |
| 20260508175942 | 18 | 258 | 14.5 | 25.7 | 0.00 | 0.03 | 0.03 | 52 | 1008.8 |
| 20260508175438 | 17 | 245 | 16.1 | 25.7 | 0.00 | 0.03 | 0.03 | 53 | 1009.5 |
| 20260508174936 | 17 | 258 | 20.9 | 25.7 | 0.00 | 0.03 | 0.03 | 55 | 1009.3 |
| 20260508174434 | 17 | 245 | 14.5 | 14.5 | 0.00 | 0.03 | 0.03 | 54 | 1009.7 |
| 20260508173930 | 17 | 270 | 16.1 | 22.5 | 0.00 | 0.03 | 0.03 | 55 | 1010.0 |
| 20260508173428 | 17 | 265 | 9.7 | 22.5 | 0.00 | 0.03 | 0.03 | 56 | 1009.8 |
| 20260508172923 | 17 | 253 | 14.5 | 25.7 | 0.00 | 0.03 | 0.03 | 54 | 1010.1 |
| 20260508172421 | 17 | 267 | 17.7 | 25.7 | 0.00 | 0.03 | 0.03 | 52 | 1010.0 |
| 20260508171917 | 17 | 252 | 14.5 | 20.9 | 0.00 | 0.03 | 0.03 | 52 | 1010.1 |
| 20260508171413 | 16 | 226 | 25.7 | 30.6 | 0.00 | 0.03 | 0.03 | 52 | 1010.1 |
| 20260508170910 | 16 | 214 | 20.9 | 22.5 | 0.00 | 0.03 | 0.03 | 53 | 1010.0 |
| 20260508170408 | 16 | 248 | 14.5 | 20.9 | 0.00 | 0.03 | 0.03 | 53 | 1010.5 |
| 20260508165904 | 16 | 224 | 9.7 | 14.5 | 0.00 | 0.03 | 0.03 | 53 | 1010.8 |
| 20260508165402 | 16 | 257 | 12.9 | 16.1 | 0.00 | 0.03 | 0.03 | 55 | 1010.7 |
| 20260508164857 | 16 | 272 | 4.8 | 17.7 | 0.00 | 0.03 | 0.03 | 54 | 1010.6 |
| 20260508164355 | 15 | 239 | 12.9 | 17.7 | 0.00 | 0.03 | 0.03 | 58 | 1011.3 |
| 20260508163852 | 15 | 284 | 14.5 | 22.5 | 0.00 | 0.03 | 0.03 | 56 | 1011.3 |
| 20260508163350 | 15 | 275 | 16.1 | 22.5 | 0.00 | 0.03 | 0.03 | 55 | 1011.5 |
| 20260508162845 | 15 | 280 | 14.5 | 17.7 | 0.00 | 0.03 | 0.03 | 57 | 1011.4 |
| 20260508162342 | 15 | 290 | 12.9 | 20.9 | 0.00 | 0.03 | 0.03 | 55 | 1011.5 |
| 20260508161840 | 15 | 254 | 16.1 | 24.1 | 0.00 | 0.03 | 0.03 | 55 | 1011.6 |
| 20260508161337 | 15 | 253 | 17.7 | 17.7 | 0.00 | 0.03 | 0.03 | 58 | 1011.6 |
| 20260508160834 | 15 | 214 | 14.5 | 17.7 | 0.00 | 0.03 | 0.03 | 57 | 1011.6 |
| 20260508160333 | 15 | 252 | 19.3 | 25.7 | 0.00 | 0.03 | 0.03 | 58 | 1011.7 |
| 20260508155829 | 14 | 286 | 14.5 | 22.5 | 0.00 | 0.03 | 0.03 | 61 | 1011.6 |
| 20260508155326 | 13 | 252 | 14.5 | 17.7 | 0.00 | 0.03 | 0.03 | 60 | 1011.8 |
| 20260508154823 | 13 | 258 | 14.5 | 14.5 | 0.00 | 0.03 | 0.03 | 60 | 1011.9 |
| 20260508154321 | 13 | 264 | 14.5 | 17.7 | 0.00 | 0.03 | 0.03 | 59 | 1011.8 |
| 20260508153816 | 13 | 271 | 14.5 | 17.7 | 0.00 | 0.03 | 0.03 | 62 | 1011.8 |
| 20260508153314 | 13 | 280 | 14.5 | 16.1 | 0.00 | 0.03 | 0.03 | 63 | 1011.8 |
| 20260508152810 | 13 | 244 | 16.1 | 16.1 | 0.00 | 0.03 | 0.03 | 63 | 1011.9 |
| 20260508152307 | 12 | 259 | 9.7 | 17.7 | 0.00 | 0.03 | 0.03 | 64 | 1011.9 |
| 20260508151803 | 12 | 250 | 12.9 | 14.5 | 0.00 | 0.03 | 0.03 | 63 | 1011.6 |
| 20260508151300 | 12 | 241 | 12.9 | 17.7 | 0.00 | 0.03 | 0.03 | 64 | 1011.9 |
| 20260508150756 | 13 | 236 | 16.1 | 22.5 | 0.00 | 0.03 | 0.03 | 62 | 1012.1 |
| 20260508150253 | 13 | 234 | 14.5 | 17.7 | 0.00 | 0.03 | 0.03 | 64 | 1011.9 |
| 20260508145749 | 12 | 264 | 14.5 | 22.5 | 0.00 | 0.03 | 0.03 | 63 | 1012.0 |
| 20260508145245 | 13 | 245 | 16.1 | 24.1 | 0.00 | 0.03 | 0.03 | 60 | 1011.9 |
| 20260508144742 | 13 | 252 | 14.5 | 20.9 | 0.00 | 0.03 | 0.03 | 63 | 1011.9 |
| 20260508144241 | 12 | 235 | 14.5 | 17.7 | 0.00 | 0.03 | 0.03 | 65 | 1011.9 |
| 20260508143737 | 12 | 256 | 8.0 | 11.3 | 0.00 | 0.03 | 0.03 | 67 | 1012.0 |
| 20260508143235 | 12 | 247 | 8.0 | 11.3 | 0.00 | 0.03 | 0.03 | 67 | 1011.7 |
| 20260508142730 | 12 | 236 | 9.7 | 11.3 | 0.00 | 0.03 | 0.03 | 67 | 1011.7 |
| 20260508142228 | 11 | 229 | 8.0 | 11.3 | 0.00 | 0.03 | 0.03 | 69 | 1011.8 |
| 20260508141724 | 11 | 252 | 9.7 | 12.9 | 0.00 | 0.03 | 0.03 | 68 | 1012.1 |
| 20260508141222 | 11 | 261 | 4.8 | 11.3 | 0.00 | 0.03 | 0.03 | 69 | 1011.7 |
| 20260508140719 | 11 | 254 | 6.4 | 9.7 | 0.00 | 0.03 | 0.03 | 69 | 1011.9 |
| 20260508140216 | 11 | 261 | 9.7 | 12.9 | 0.00 | 0.03 | 0.03 | 68 | 1012.1 |
| 20260508135712 | 11 | 249 | 12.9 | 16.1 | 0.00 | 0.03 | 0.03 | 67 | 1012.0 |
| 20260508135207 | 11 | 247 | 6.4 | 12.9 | 0.00 | 0.03 | 0.03 | 68 | 1011.9 |
| 20260508134704 | 10 | 243 | 12.9 | 14.5 | 0.00 | 0.03 | 0.03 | 67 | 1011.9 |
| 20260508134201 | 10 | 247 | 9.7 | 12.9 | 0.00 | 0.03 | 0.03 | 68 | 1011.9 |
| 20260508133658 | 10 | 263 | 9.7 | 16.1 | 0.00 | 0.03 | 0.03 | 68 | 1012.0 |
| 20260508133155 | 10 | 235 | 8.0 | 14.5 | 0.00 | 0.03 | 0.03 | 69 | 1012.0 |
| 20260508132653 | 10 | 248 | 6.4 | 11.3 | 0.00 | 0.03 | 0.03 | 70 | 1011.9 |
| 20260508132150 | 10 | 247 | 8.0 | 11.3 | 0.00 | 0.03 | 0.03 | 71 | 1011.9 |
| 20260508131645 | 10 | 256 | 4.8 | 11.3 | 0.00 | 0.03 | 0.03 | 71 | 1011.9 |
| 20260508131142 | 10 | 258 | 9.7 | 11.3 | 0.00 | 0.03 | 0.03 | 72 | 1012.1 |
| 20260508130639 | 10 | 252 | 12.9 | 14.5 | 0.00 | 0.03 | 0.03 | 71 | 1012.1 |
| 20260508130136 | 10 | 263 | 9.7 | 14.5 | 0.00 | 0.03 | 0.03 | 70 | 1011.9 |
| 20260508125631 | 10 | 245 | 9.7 | 11.3 | 0.00 | 0.03 | 0.03 | 72 | 1012.1 |
| 20260508125129 | 10 | 248 | 6.4 | 11.3 | 0.00 | 0.03 | 0.03 | 71 | 1012.0 |
| 20260508124626 | 10 | 251 | 6.4 | 11.3 | 0.00 | 0.03 | 0.03 | 70 | 1012.0 |
| 20260508124123 | 10 | 245 | 8.0 | 11.3 | 0.00 | 0.03 | 0.03 | 70 | 1011.7 |
| 20260508123621 | 10 | 223 | 6.4 | 12.9 | 0.00 | 0.03 | 0.03 | 70 | 1011.9 |
| 20260508123119 | 10 | 256 | 8.0 | 12.9 | 0.00 | 0.03 | 0.03 | 70 | 1012.1 |
| 20260508122615 | 10 | 239 | 9.7 | 12.9 | 0.00 | 0.03 | 0.03 | 70 | 1011.9 |
| 20260508122112 | 10 | 250 | 9.7 | 12.9 | 0.00 | 0.03 | 0.03 | 70 | 1011.8 |
| 20260508121610 | 9 | 226 | 8.0 | 11.3 | 0.00 | 0.03 | 0.03 | 71 | 1011.7 |
| 20260508121108 | 9 | 215 | 6.4 | 11.3 | 0.00 | 0.03 | 0.03 | 71 | 1011.8 |
| 20260508120605 | 9 | 257 | 11.3 | 12.9 | 0.00 | 0.03 | 0.03 | 71 | 1011.8 |
| 20260508120104 | 9 | 230 | 8.0 | 11.3 | 0.00 | 0.03 | 0.03 | 70 | 1011.8 |
| 20260508115600 | 9 | 207 | 4.8 | 9.7 | 0.00 | 0.03 | 0.03 | 72 | 1011.9 |
| 20260508115057 | 9 | 198 | 8.0 | 11.3 | 0.00 | 0.03 | 0.03 | 71 | 1011.7 |
| 20260508114554 | 9 | 203 | 6.4 | 11.3 | 0.00 | 0.03 | 0.03 | 71 | 1011.8 |
| 20260508114050 | 8 | 224 | 6.4 | 11.3 | 0.00 | 0.03 | 0.03 | 72 | 1011.9 |
| 20260508113548 | 8 | 209 | 6.4 | 9.7 | 0.00 | 0.03 | 0.03 | 73 | 1011.5 |
| 20260508113046 | 8 | 200 | 8.0 | 11.3 | 0.00 | 0.03 | 0.03 | 73 | 1011.7 |
| 20260508112541 | 8 | 189 | 9.7 | 11.3 | 0.00 | 0.03 | 0.03 | 73 | 1011.3 |
| 20260508112038 | 8 | 205 | 6.4 | 9.7 | 0.00 | 0.03 | 0.03 | 73 | 1011.7 |
| 20260508111536 | 8 | 240 | 8.0 | 11.3 | 0.00 | 0.03 | 0.03 | 72 | 1011.3 |
| 20260508111033 | 8 | 194 | 6.4 | 11.3 | 0.00 | 0.03 | 0.03 | 71 | 1011.4 |
| 20260508110531 | 8 | 220 | 4.8 | 11.3 | 0.00 | 0.03 | 0.03 | 70 | 1011.3 |
| 20260508110026 | 8 | 220 | 8.0 | 11.3 | 0.00 | 0.03 | 0.03 | 70 | 1011.4 |
| 20260508105521 | 8 | 224 | 6.4 | 6.4 | 0.00 | 0.03 | 0.03 | 71 | 1011.6 |
| 20260508105019 | 8 | 234 | 4.8 | 11.3 | 0.00 | 0.03 | 0.03 | 72 | 1011.1 |
| 20260508104517 | 8 | 218 | 6.4 | 9.7 | 0.00 | 0.03 | 0.03 | 73 | 1011.3 |
| 20260508104013 | 7 | 217 | 4.8 | 9.7 | 0.00 | 0.03 | 0.03 | 74 | 1011.4 |
| 20260508103510 | 7 | 214 | 6.4 | 6.4 | 0.00 | 0.03 | 0.03 | 74 | 1011.3 |
| 20260508103007 | 7 | 200 | 4.8 | 6.4 | 0.00 | 0.03 | 0.03 | 74 | 1011.3 |
| 20260508102505 | 8 | 191 | 6.4 | 6.4 | 0.00 | 0.03 | 0.03 | 72 | 1011.2 |
| 20260508102003 | 8 | 234 | 8.0 | 9.7 | 0.00 | 0.03 | 0.03 | 71 | 1011.3 |
| 20260508101500 | 8 | 229 | 6.4 | 6.4 | 0.00 | 0.03 | 0.03 | 71 | 1011.3 |
| 20260508100956 | 8 | 232 | 6.4 | 9.7 | 0.00 | 0.03 | 0.03 | 71 | 1011.4 |
| 20260508100455 | 8 | 243 | 6.4 | 9.7 | 0.00 | 0.03 | 0.03 | 71 | 1011.3 |
| 20260508095951 | 8 | 248 | 6.4 | 11.3 | 0.00 | 0.03 | 0.03 | 70 | 1011.2 |
| 20260508095449 | 8 | 236 | 8.0 | 11.3 | 0.00 | 0.03 | 0.03 | 70 | 1011.1 |
| 20260508094945 | 8 | 247 | 8.0 | 9.7 | 0.00 | 0.03 | 0.03 | 70 | 1011.0 |
| 20260508094442 | 8 | 222 | 11.3 | 12.9 | 0.00 | 0.03 | 0.03 | 70 | 1011.2 |
| 20260508093939 | 8 | 238 | 8.0 | 14.5 | 0.00 | 0.03 | 0.03 | 69 | 1011.2 |
| 20260508093436 | 8 | 225 | 6.4 | 11.3 | 0.00 | 0.03 | 0.03 | 70 | 1011.3 |
| 20260508092934 | 8 | 227 | 9.7 | 12.9 | 0.00 | 0.03 | 0.03 | 70 | 1011.1 |
| 20260508092432 | 8 | 226 | 6.4 | 12.9 | 0.00 | 0.03 | 0.03 | 69 | 1011.1 |
| 20260508091930 | 8 | 226 | 9.7 | 14.5 | 0.00 | 0.03 | 0.03 | 69 | 1011.4 |
| 20260508091426 | 8 | 235 | 11.3 | 14.5 | 0.00 | 0.03 | 0.03 | 69 | 1011.4 |
| 20260508090923 | 8 | 203 | 9.7 | 12.9 | 0.00 | 0.03 | 0.03 | 68 | 1011.4 |
| 20260508090422 | 8 | 233 | 8.0 | 16.1 | 0.00 | 0.03 | 0.03 | 68 | 1011.4 |
| 20260508085917 | 8 | 250 | 9.7 | 12.9 | 0.00 | 0.03 | 0.03 | 68 | 1011.2 |
| 20260508085415 | 8 | 239 | 11.3 | 14.5 | 0.00 | 0.03 | 0.03 | 68 | 1011.2 |
| 20260508084911 | 8 | 250 | 9.7 | 12.9 | 0.00 | 0.03 | 0.03 | 68 | 1011.3 |
| 20260508084408 | 8 | 220 | 6.4 | 12.9 | 0.00 | 0.03 | 0.03 | 68 | 1011.1 |
| 20260508083906 | 8 | 234 | 9.7 | 14.5 | 0.00 | 0.03 | 0.03 | 68 | 1010.9 |
| 20260508083403 | 8 | 241 | 8.0 | 12.9 | 0.00 | 0.03 | 0.03 | 68 | 1011.1 |
| 20260508082902 | 8 | 232 | 11.3 | 14.5 | 0.00 | 0.03 | 0.03 | 68 | 1011.3 |
| 20260508082400 | 8 | 229 | 6.4 | 12.9 | 0.00 | 0.03 | 0.03 | 68 | 1011.2 |
| 20260508081857 | 8 | 234 | 9.7 | 11.3 | 0.00 | 0.03 | 0.03 | 68 | 1011.2 |
| 20260508081354 | 8 | 245 | 12.9 | 14.5 | 0.00 | 0.03 | 0.03 | 68 | 1011.1 |
| 20260508080851 | 8 | 229 | 11.3 | 12.9 | 0.00 | 0.03 | 0.03 | 67 | 1011.5 |
| 20260508080349 | 8 | 210 | 8.0 | 12.9 | 0.00 | 0.03 | 0.03 | 68 | 1011.3 |
| 20260508075845 | 8 | 234 | 9.7 | 12.9 | 0.00 | 0.03 | 0.03 | 69 | 1011.1 |
| 20260508075342 | 8 | 227 | 6.4 | 12.9 | 0.00 | 0.03 | 0.03 | 69 | 1011.3 |
| 20260508074840 | 8 | 214 | 9.7 | 12.9 | 0.00 | 0.03 | 0.03 | 68 | 1011.5 |
| 20260508074337 | 8 | 219 | 9.7 | 12.9 | 0.00 | 0.03 | 0.03 | 69 | 1011.4 |
| 20260508073834 | 8 | 214 | 6.4 | 11.3 | 0.00 | 0.03 | 0.03 | 69 | 1011.4 |
| 20260508073332 | 8 | 215 | 8.0 | 11.3 | 0.00 | 0.03 | 0.03 | 69 | 1011.4 |
| 20260508072828 | 8 | 222 | 8.0 | 11.3 | 0.00 | 0.03 | 0.03 | 70 | 1011.5 |
| 20260508072325 | 8 | 207 | 4.8 | 9.7 | 0.00 | 0.03 | 0.03 | 71 | 1011.6 |
| 20260508071822 | 8 | 210 | 6.4 | 9.7 | 0.00 | 0.03 | 0.03 | 72 | 1011.6 |
| 20260508071321 | 8 | 194 | 4.8 | 9.7 | 0.00 | 0.03 | 0.03 | 72 | 1011.5 |
| 20260508070817 | 8 | 205 | 6.4 | 9.7 | 0.00 | 0.03 | 0.03 | 72 | 1011.3 |
| 20260508070316 | 8 | 232 | 4.8 | 9.7 | 0.00 | 0.03 | 0.03 | 71 | 1011.6 |
| 20260508065813 | 9 | 214 | 6.4 | 9.7 | 0.00 | 0.03 | 0.03 | 71 | 1011.5 |
| 20260508065311 | 9 | 216 | 8.0 | 11.3 | 0.00 | 0.03 | 0.03 | 70 | 1011.7 |
| 20260508064809 | 9 | 219 | 3.2 | 9.7 | 0.00 | 0.03 | 0.03 | 70 | 1012.0 |
| 20260508064306 | 9 | 227 | 6.4 | 9.7 | 0.00 | 0.03 | 0.03 | 70 | 1011.6 |
| 20260508063803 | 9 | 232 | 6.4 | 11.3 | 0.00 | 0.03 | 0.03 | 70 | 1011.6 |
| 20260508063302 | 9 | 214 | 6.4 | 9.7 | 0.00 | 0.03 | 0.03 | 70 | 1012.0 |
| 20260508062758 | 9 | 231 | 6.4 | 9.7 | 0.00 | 0.03 | 0.03 | 71 | 1011.6 |
| 20260508062256 | 9 | 233 | 3.2 | 6.4 | 0.00 | 0.03 | 0.03 | 71 | 1011.9 |
| 20260508061752 | 9 | 234 | 6.4 | 6.4 | 0.00 | 0.03 | 0.03 | 71 | 1012.0 |
| 20260508061249 | 9 | 217 | 3.2 | 6.4 | 0.00 | 0.03 | 0.03 | 71 | 1011.8 |
| 20260508060746 | 9 | 226 | 3.2 | 3.2 | 0.00 | 0.03 | 0.03 | 71 | 1012.0 |
| 20260508060244 | 9 | 244 | 3.2 | 4.8 | 0.00 | 0.03 | 0.03 | 71 | 1011.8 |
| 20260508055739 | 9 | 250 | 3.2 | 3.2 | 0.00 | 0.03 | 0.03 | 71 | 1011.9 |
| 20260508055237 | 9 | 248 | 3.2 | 4.8 | 0.00 | 0.03 | 0.03 | 70 | 1011.8 |
| 20260508054733 | 10 | 241 | 3.2 | 4.8 | 0.00 | 0.03 | 0.03 | 69 | 1011.8 |
| 20260508054231 | 10 | 226 | 4.8 | 6.4 | 0.00 | 0.03 | 0.03 | 69 | 1012.1 |
| 20260508053728 | 10 | 217 | 6.4 | 6.4 | 0.00 | 0.03 | 0.03 | 68 | 1011.9 |
| 20260508053225 | 10 | 221 | 4.8 | 6.4 | 0.00 | 0.03 | 0.03 | 68 | 1011.9 |
| 20260508052722 | 10 | 217 | 8.0 | 11.3 | 0.00 | 0.03 | 0.03 | 68 | 1012.0 |
| 20260508052219 | 10 | 217 | 6.4 | 9.7 | 0.00 | 0.03 | 0.03 | 69 | 1011.9 |
| 20260508051715 | 10 | 220 | 6.4 | 9.7 | 0.00 | 0.03 | 0.03 | 69 | 1012.1 |
| 20260508051211 | 10 | 221 | 8.0 | 9.7 | 0.00 | 0.03 | 0.03 | 69 | 1012.0 |
| 20260508050708 | 10 | 217 | 11.3 | 12.9 | 0.00 | 0.03 | 0.03 | 69 | 1012.1 |
| 20260508050205 | 10 | 214 | 6.4 | 9.7 | 0.00 | 0.03 | 0.03 | 69 | 1012.2 |
| 20260508045700 | 10 | 263 | 6.4 | 9.7 | 0.00 | 0.03 | 0.03 | 69 | 1012.2 |
| 20260508045159 | 10 | 218 | 4.8 | 6.4 | 0.00 | 0.03 | 0.03 | 70 | 1012.2 |
| 20260508044655 | 10 | 194 | 1.6 | 3.2 | 0.00 | 0.03 | 0.03 | 73 | 1012.0 |
| 20260508044152 | 10 | 286 | 3.2 | 3.2 | 0.00 | 0.03 | 0.03 | 72 | 1012.3 |
| 20260508043648 | 10 | 187 | 6.4 | 9.7 | 0.18 | 0.03 | 0.03 | 70 | 1012.2 |
| 20260508043146 | 10 | 334 | 0.0 | 4.8 | 0.18 | 0.03 | 0.03 | 73 | 1012.3 |
| 20260508042642 | 10 | 326 | 16.1 | 22.5 | 0.00 | 0.00 | 0.00 | 76 | 1012.8 |
| 20260508042140 | 10 | 16 | 16.1 | 20.9 | 0.00 | 0.00 | 0.00 | 77 | 1012.6 |
| 20260508041636 | 10 | 12 | 6.4 | 6.4 | 0.00 | 0.00 | 0.00 | 73 | 1012.1 |
| 20260508041133 | 10 | 211 | 3.2 | 3.2 | 0.00 | 0.00 | 0.00 | 71 | 1012.1 |
| 20260508040629 | 10 | 198 | 3.2 | 4.8 | 0.00 | 0.00 | 0.00 | 72 | 1011.7 |
| 20260508040127 | 10 | 181 | 4.8 | 4.8 | 0.00 | 0.00 | 0.00 | 72 | 1011.7 |
| 20260508035624 | 10 | 168 | 4.8 | 6.4 | 0.00 | 0.00 | 0.00 | 73 | 1011.8 |
| 20260508035121 | 10 | 172 | 6.4 | 6.4 | 0.00 | 0.00 | 0.00 | 72 | 1011.6 |
| 20260508034617 | 10 | 177 | 6.4 | 9.7 | 0.00 | 0.00 | 0.00 | 72 | 1011.5 |
| 20260508034115 | 10 | 184 | 6.4 | 6.4 | 0.00 | 0.00 | 0.00 | 73 | 1012.0 |
| 20260508033612 | 10 | 194 | 6.4 | 6.4 | 0.00 | 0.00 | 0.00 | 73 | 1011.9 |
| 20260508033111 | 9 | 190 | 6.4 | 6.4 | 0.00 | 0.00 | 0.00 | 73 | 1011.8 |
| 20260508032607 | 9 | 175 | 6.4 | 6.4 | 0.00 | 0.00 | 0.00 | 73 | 1011.7 |
| 20260508032105 | 10 | 194 | 6.4 | 6.4 | 0.00 | 0.00 | 0.00 | 72 | 1011.9 |
| 20260508031601 | 10 | 209 | 6.4 | 9.7 | 0.00 | 0.00 | 0.00 | 72 | 1011.9 |
| 20260508031057 | 10 | 208 | 6.4 | 9.7 | 0.00 | 0.00 | 0.00 | 71 | 1011.8 |
| 20260508030554 | 10 | 204 | 8.0 | 9.7 | 0.00 | 0.00 | 0.00 | 70 | 1012.0 |
| 20260508030052 | 10 | 200 | 4.8 | 6.4 | 0.00 | 0.00 | 0.00 | 69 | 1011.9 |
| 20260508025548 | 10 | 219 | 4.8 | 6.4 | 0.00 | 0.00 | 0.00 | 69 | 1012.1 |
| 20260508025045 | 10 | 220 | 6.4 | 9.7 | 0.00 | 0.00 | 0.00 | 69 | 1012.3 |
| 20260508024541 | 10 | 249 | 8.0 | 11.3 | 0.00 | 0.00 | 0.00 | 69 | 1012.3 |
| 20260508024038 | 10 | 210 | 8.0 | 11.3 | 0.00 | 0.00 | 0.00 | 69 | 1012.0 |
| 20260508023534 | 10 | 219 | 8.0 | 11.3 | 0.00 | 0.00 | 0.00 | 69 | 1012.0 |
| 20260508023032 | 10 | 202 | 6.4 | 9.7 | 0.00 | 0.00 | 0.00 | 69 | 1012.2 |
| 20260508022527 | 10 | 216 | 3.2 | 4.8 | 0.00 | 0.00 | 0.00 | 67 | 1012.0 |
| 20260508022025 | 10 | 227 | 6.4 | 6.4 | 0.00 | 0.00 | 0.00 | 67 | 1012.1 |
| 20260508021521 | 10 | 232 | 4.8 | 6.4 | 0.00 | 0.00 | 0.00 | 66 | 1012.1 |
| 20260508021016 | 10 | 219 | 3.2 | 4.8 | 0.00 | 0.00 | 0.00 | 67 | 1012.2 |
| 20260508020515 | 10 | 257 | 3.2 | 3.2 | 0.00 | 0.00 | 0.00 | 67 | 1012.1 |
| 20260508020012 | 10 | 247 | 3.2 | 4.8 | 0.00 | 0.00 | 0.00 | 66 | 1012.1 |
| 20260508015509 | 10 | 277 | 3.2 | 4.8 | 0.00 | 0.00 | 0.00 | 67 | 1012.0 |
| 20260508015006 | 10 | 268 | 3.2 | 9.7 | 0.00 | 0.00 | 0.00 | 66 | 1012.1 |
| 20260508014502 | 10 | 245 | 4.8 | 9.7 | 0.00 | 0.00 | 0.00 | 65 | 1011.8 |
| 20260508013959 | 10 | 252 | 4.8 | 6.4 | 0.00 | 0.00 | 0.00 | 65 | 1011.6 |
| 20260508013455 | 10 | 251 | 6.4 | 6.4 | 0.00 | 0.00 | 0.00 | 65 | 1012.0 |
| 20260508012952 | 10 | 278 | 6.4 | 6.4 | 0.00 | 0.00 | 0.00 | 65 | 1012.1 |
| 20260508012449 | 10 | 258 | 6.4 | 6.4 | 0.00 | 0.00 | 0.00 | 65 | 1012.1 |
| 20260508011946 | 11 | 259 | 4.8 | 9.7 | 0.00 | 0.00 | 0.00 | 64 | 1011.9 |
| 20260508011444 | 11 | 259 | 6.4 | 9.7 | 0.00 | 0.00 | 0.00 | 64 | 1011.9 |
| 20260508010942 | 11 | 254 | 4.8 | 6.4 | 0.00 | 0.00 | 0.00 | 64 | 1011.7 |
| 20260508010438 | 11 | 246 | 6.4 | 9.7 | 0.00 | 0.00 | 0.00 | 63 | 1011.8 |
| 20260508005936 | 11 | 270 | 6.4 | 9.7 | 0.00 | 0.00 | 0.00 | 62 | 1012.0 |
| 20260508005432 | 11 | 258 | 6.4 | 11.3 | 0.00 | 0.00 | 0.00 | 61 | 1011.8 |
| 20260508004929 | 11 | 260 | 6.4 | 9.7 | 0.00 | 0.00 | 0.00 | 61 | 1012.0 |
| 20260508004425 | 11 | 249 | 6.4 | 9.7 | 0.00 | 0.00 | 0.00 | 61 | 1012.1 |
| 20260508003922 | 11 | 251 | 3.2 | 4.8 | 0.00 | 0.00 | 0.00 | 60 | 1012.1 |
| 20260508003419 | 11 | 232 | 4.8 | 6.4 | 0.00 | 0.00 | 0.00 | 59 | 1012.0 |
| 20260508002916 | 11 | 246 | 3.2 | 4.8 | 0.00 | 0.00 | 0.00 | 59 | 1012.2 |
| 20260508002413 | 11 | 264 | 6.4 | 6.4 | 0.00 | 0.00 | 0.00 | 58 | 1012.1 |
| 20260508001909 | 11 | 253 | 4.8 | 4.8 | 0.00 | 0.00 | 0.00 | 58 | 1012.0 |
| 20260508001405 | 11 | 257 | 6.4 | 9.7 | 0.00 | 0.00 | 0.00 | 58 | 1012.2 |
| 20260508000901 | 11 | 276 | 9.7 | 11.3 | 0.00 | 0.00 | 0.00 | 58 | 1012.0 |
| 20260508000358 | 11 | 274 | 6.4 | 9.7 | 0.00 | 0.00 | 0.00 | 58 | 1012.1 |
| 20260507235854 | 11 | 263 | 11.3 | 16.1 | 0.00 | 0.00 | 0.00 | 55 | 1012.4 |
| 20260507235352 | 11 | 283 | 6.4 | 6.4 | 0.00 | 0.00 | 0.00 | 56 | 1012.2 |
| 20260507234849 | 11 | 328 | 11.3 | 14.5 | 0.00 | 0.00 | 0.00 | 57 | 1012.3 |
| 20260507234345 | 11 | 312 | 11.3 | 12.9 | 0.00 | 0.00 | 0.00 | 56 | 1012.1 |
| 20260507233842 | 12 | 318 | 12.9 | 20.9 | 0.00 | 0.00 | 0.00 | 54 | 1012.0 |
| 20260507233339 | 12 | 316 | 14.5 | 17.7 | 0.00 | 0.00 | 0.00 | 54 | 1012.4 |
| 20260507232837 | 12 | 303 | 20.9 | 22.5 | 0.00 | 0.00 | 0.00 | 52 | 1012.2 |
| 20260507232333 | 12 | 310 | 17.7 | 24.1 | 0.00 | 0.00 | 0.00 | 49 | 1012.1 |
| 20260507231831 | 12 | 298 | 14.5 | 14.5 | 0.00 | 0.00 | 0.00 | 46 | 1012.2 |
| 20260507231327 | 12 | 297 | 11.3 | 12.9 | 0.00 | 0.00 | 0.00 | 47 | 1011.8 |
| 20260507230824 | 12 | 247 | 3.2 | 9.7 | 0.00 | 0.00 | 0.00 | 46 | 1011.9 |
| 20260507230321 | 13 | 298 | 9.7 | 17.7 | 0.00 | 0.00 | 0.00 | 43 | 1012.0 |
| 20260507225821 | 13 | 276 | 12.9 | 14.5 | 0.00 | 0.00 | 0.00 | 45 | 1011.8 |
| 20260507225317 | 13 | 286 | 11.3 | 14.5 | 0.00 | 0.00 | 0.00 | 43 | 1012.0 |
| 20260507224814 | 13 | 251 | 9.7 | 12.9 | 0.00 | 0.00 | 0.00 | 45 | 1012.0 |
| 20260507224310 | 13 | 279 | 9.7 | 12.9 | 0.00 | 0.00 | 0.00 | 45 | 1011.8 |
| 20260507223806 | 13 | 271 | 8.0 | 12.9 | 0.00 | 0.00 | 0.00 | 44 | 1011.8 |
| 20260507223303 | 13 | 275 | 8.0 | 11.3 | 0.00 | 0.00 | 0.00 | 45 | 1011.8 |
| 20260507222800 | 13 | 250 | 11.3 | 16.1 | 0.00 | 0.00 | 0.00 | 42 | 1011.9 |
| 20260507222256 | 13 | 265 | 14.5 | 20.9 | 0.00 | 0.00 | 0.00 | 43 | 1012.0 |
| 20260507221753 | 13 | 271 | 9.7 | 14.5 | 0.00 | 0.00 | 0.00 | 40 | 1012.2 |
| 20260507221249 | 13 | 310 | 8.0 | 12.9 | 0.00 | 0.00 | 0.00 | 40 | 1011.7 |
| 20260507220746 | 13 | 278 | 14.5 | 16.1 | 0.00 | 0.00 | 0.00 | 41 | 1011.8 |